createdAt,value
2022-11-13T00:02:07.340Z,60.97
2022-11-13T00:04:34.100Z,60.19
2022-11-13T00:07:00.802Z,60.92
2022-11-13T00:09:27.475Z,60.12
2022-11-13T00:11:54.117Z,60.41
2022-11-13T00:14:20.759Z,60.42
2022-11-13T00:16:47.396Z,60.53
2022-11-13T00:19:14.047Z,60.39
2022-11-13T00:21:40.689Z,60.39
2022-11-13T00:24:07.345Z,60.09
2022-11-13T00:26:33.983Z,60.16
2022-11-13T00:29:00.674Z,61.01
2022-11-13T00:31:27.305Z,60.89
2022-11-13T00:36:40.594Z,60.97
2022-11-13T00:39:07.212Z,60.61
2022-11-13T00:41:33.952Z,60.59
2022-11-13T00:44:00.562Z,60.25
2022-11-13T00:46:27.460Z,60.58
2022-11-13T00:48:54.077Z,60.63
2022-11-13T00:51:20.785Z,60.95
2022-11-13T00:53:47.630Z,60.33
2022-11-13T00:56:14.268Z,60.59
2022-11-13T00:58:40.918Z,60.18
2022-11-13T01:01:07.523Z,60.65
2022-11-13T01:03:34.167Z,60.32
2022-11-13T01:06:01.034Z,60.66
2022-11-13T01:08:28.018Z,60.37
2022-11-13T01:10:54.849Z,60.72
2022-11-13T01:13:21.503Z,60.18
2022-11-13T01:15:48.173Z,60.15
2022-11-13T01:18:15.113Z,60.33
2022-11-13T01:20:41.779Z,60.22
2022-11-13T01:23:08.450Z,61.08
2022-11-13T01:25:35.173Z,61.36
2022-11-13T01:28:01.807Z,61.47
2022-11-13T01:30:28.638Z,61.10
2022-11-13T01:32:55.288Z,61.62
2022-11-13T01:35:21.978Z,61.50
2022-11-13T01:37:48.590Z,61.96
2022-11-13T01:40:15.260Z,62.01
2022-11-13T01:42:41.924Z,62.11
2022-11-13T01:45:08.598Z,61.73
2022-11-13T01:47:35.234Z,61.65
2022-11-13T01:50:01.876Z,62.44
2022-11-13T01:52:28.509Z,62.10
2022-11-13T01:54:55.158Z,62.34
2022-11-13T01:57:21.839Z,62.26
2022-11-13T01:59:48.455Z,61.94
2022-11-13T02:02:15.075Z,62.37
2022-11-13T02:04:41.733Z,62.01
2022-11-13T02:07:08.441Z,62.52
2022-11-13T02:09:35.128Z,63.05
2022-11-13T02:12:01.787Z,63.63
2022-11-13T02:14:28.422Z,63.48
2022-11-13T02:16:55.044Z,63.55
2022-11-13T02:19:21.651Z,63.43
2022-11-13T02:21:48.286Z,63.68
2022-11-13T02:24:14.971Z,63.55
2022-11-13T02:26:41.614Z,63.26
2022-11-13T02:29:08.219Z,63.82
2022-11-13T02:31:34.954Z,63.59
2022-11-13T02:34:01.563Z,62.70
2022-11-13T02:36:28.235Z,64.07
2022-11-13T02:38:54.854Z,63.41
2022-11-13T02:41:21.495Z,63.63
2022-11-13T02:43:48.344Z,62.68
2022-11-13T02:46:14.980Z,63.45
2022-11-13T02:48:41.613Z,62.18
2022-11-13T02:51:08.302Z,64.34
2022-11-13T02:53:34.956Z,64.18
2022-11-13T02:56:01.791Z,64.97
2022-11-13T02:58:28.984Z,64.75
2022-11-13T03:00:55.869Z,64.47
2022-11-13T03:03:48.235Z,63.64
2022-11-13T03:06:09.300Z,64.32
2022-11-13T03:08:36.767Z,64.32
2022-11-13T03:11:03.748Z,63.92
2022-11-13T03:13:30.384Z,63.54
2022-11-13T03:15:57.029Z,63.64
2022-11-13T03:18:23.654Z,63.46
2022-11-13T03:20:50.321Z,63.41
2022-11-13T03:23:16.976Z,64.01
2022-11-13T03:25:43.605Z,63.67
2022-11-13T03:28:10.273Z,63.50
2022-11-13T03:30:36.937Z,63.76
2022-11-13T03:33:03.564Z,63.99
2022-11-13T03:35:32.495Z,63.49
2022-11-13T03:38:01.548Z,63.86
2022-11-13T03:40:28.161Z,64.51
2022-11-13T03:42:54.828Z,64.90
2022-11-13T03:45:21.500Z,64.46
2022-11-13T03:47:48.187Z,64.67
2022-11-13T03:50:14.828Z,64.66
2022-11-13T03:52:41.542Z,64.47
2022-11-13T03:55:08.156Z,65.25
2022-11-13T03:57:34.827Z,65.22
2022-11-13T04:00:01.436Z,65.56
2022-11-13T04:02:28.109Z,66.63
2022-11-13T04:04:54.728Z,67.14
2022-11-13T04:07:21.675Z,66.25
2022-11-13T04:09:48.420Z,65.80
2022-11-13T04:12:15.048Z,65.54
2022-11-13T04:14:41.670Z,65.55
2022-11-13T04:17:08.294Z,65.29
2022-11-13T04:19:34.953Z,65.19
2022-11-13T04:22:01.591Z,65.60
2022-11-13T04:24:28.268Z,65.28
2022-11-13T04:26:54.936Z,64.92
2022-11-13T04:29:21.636Z,64.77
2022-11-13T04:31:48.318Z,65.40
2022-11-13T04:34:14.926Z,65.22
2022-11-13T04:36:41.593Z,64.78
2022-11-13T04:39:08.264Z,64.68
2022-11-13T04:41:34.874Z,64.59
2022-11-13T04:44:01.535Z,64.83
2022-11-13T04:46:28.202Z,64.68
2022-11-13T04:48:54.803Z,64.62
2022-11-13T04:51:21.621Z,64.63
2022-11-13T04:53:48.295Z,64.47
2022-11-13T04:56:14.941Z,64.38
2022-11-13T04:58:41.583Z,64.25
2022-11-13T05:01:08.227Z,64.11
2022-11-13T05:03:34.847Z,63.55
2022-11-13T05:06:01.459Z,64.55
2022-11-13T05:08:28.682Z,64.84
2022-11-13T05:10:55.563Z,64.93
2022-11-13T05:13:22.309Z,65.11
2022-11-13T05:15:48.937Z,64.57
2022-11-13T05:18:15.597Z,64.55
2022-11-13T05:20:42.247Z,64.84
2022-11-13T05:23:08.903Z,64.23
2022-11-13T05:25:35.774Z,64.39
2022-11-13T05:28:02.403Z,64.02
2022-11-13T05:30:29.097Z,63.83
2022-11-13T05:32:55.789Z,64.34
2022-11-13T05:35:22.434Z,64.35
2022-11-13T05:37:49.143Z,64.25
2022-11-13T05:40:15.781Z,64.58
2022-11-13T05:42:42.432Z,65.32
2022-11-13T05:45:09.099Z,64.99
2022-11-13T05:47:35.731Z,64.83
2022-11-13T05:50:02.362Z,64.72
2022-11-13T05:52:28.994Z,64.85
2022-11-13T05:54:55.637Z,64.70
2022-11-13T05:57:22.280Z,64.65
2022-11-13T05:59:48.906Z,65.28
2022-11-13T06:02:15.630Z,65.51
2022-11-13T06:04:42.296Z,65.49
2022-11-13T06:07:09.029Z,65.62
2022-11-13T06:09:35.762Z,65.19
2022-11-13T06:12:02.401Z,65.57
2022-11-13T06:14:29.119Z,65.25
2022-11-13T06:16:55.751Z,64.75
2022-11-13T06:19:22.385Z,64.89
2022-11-13T06:21:49.025Z,64.77
2022-11-13T06:24:15.668Z,64.50
2022-11-13T06:26:42.334Z,64.33
2022-11-13T06:29:08.991Z,64.57
2022-11-13T06:31:35.607Z,64.19
2022-11-13T06:34:02.247Z,64.59
2022-11-13T06:36:32.004Z,65.30
2022-11-13T06:38:58.730Z,65.53
2022-11-13T06:41:25.462Z,65.21
2022-11-13T06:43:52.174Z,65.79
2022-11-13T06:46:18.836Z,65.46
2022-11-13T06:48:45.505Z,65.54
2022-11-13T06:51:12.181Z,66.03
2022-11-13T06:53:38.832Z,66.23
2022-11-13T06:56:05.481Z,65.55
2022-11-13T06:58:32.201Z,65.68
2022-11-13T07:00:59.069Z,65.78
2022-11-13T07:03:25.808Z,65.65
2022-11-13T07:05:52.475Z,65.38
2022-11-13T07:08:19.199Z,65.30
2022-11-13T07:10:45.872Z,65.00
2022-11-13T07:13:12.541Z,64.84
2022-11-13T07:15:39.174Z,64.82
2022-11-13T07:18:05.826Z,64.71
2022-11-13T07:20:32.462Z,65.13
2022-11-13T07:22:59.101Z,64.71
2022-11-13T07:25:25.742Z,64.26
2022-11-13T07:27:52.414Z,64.17
2022-11-13T07:30:19.070Z,64.36
2022-11-13T07:32:45.690Z,63.94
2022-11-13T07:35:12.397Z,63.63
2022-11-13T07:37:39.057Z,63.70
2022-11-13T07:40:05.743Z,62.88
2022-11-13T07:42:32.373Z,62.92
2022-11-13T07:44:59.028Z,62.89
2022-11-13T07:47:25.655Z,62.60
2022-11-13T07:49:52.728Z,61.81
2022-11-13T07:52:21.090Z,62.52
2022-11-13T07:54:47.777Z,62.94
2022-11-13T07:57:14.497Z,62.14
2022-11-13T07:59:41.133Z,62.19
2022-11-13T08:02:07.768Z,61.51
2022-11-13T08:04:34.419Z,61.44
2022-11-13T08:07:01.097Z,60.75
2022-11-13T08:09:27.800Z,61.23
2022-11-13T08:11:54.569Z,60.79
2022-11-13T08:14:21.293Z,60.35
2022-11-13T08:16:47.921Z,60.74
2022-11-13T08:19:14.809Z,60.45
2022-11-13T08:21:41.433Z,60.04
2022-11-13T08:24:08.087Z,59.87
2022-11-13T08:26:34.925Z,59.81
2022-11-13T08:29:01.574Z,59.68
2022-11-13T08:31:28.238Z,59.49
2022-11-13T08:33:54.870Z,60.05
2022-11-13T08:36:21.499Z,59.35
2022-11-13T08:38:48.188Z,59.13
2022-11-13T08:41:14.878Z,58.45
2022-11-13T08:43:41.741Z,58.76
2022-11-13T08:46:08.434Z,58.19
2022-11-13T08:48:35.082Z,58.24
2022-11-13T08:51:01.729Z,57.68
2022-11-13T08:53:28.389Z,57.62
2022-11-13T08:55:55.088Z,57.58
2022-11-13T08:58:21.713Z,57.44
2022-11-13T09:00:48.495Z,57.22
2022-11-13T09:03:15.112Z,57.35
2022-11-13T09:05:41.758Z,57.18
2022-11-13T09:08:08.406Z,56.92
2022-11-13T09:10:35.114Z,57.00
2022-11-13T09:13:01.874Z,56.57
2022-11-13T09:15:28.520Z,56.89
2022-11-13T09:17:55.159Z,56.89
2022-11-13T09:20:23.121Z,56.32
2022-11-13T09:22:49.887Z,56.17
2022-11-13T09:25:16.550Z,56.62
2022-11-13T09:27:43.162Z,56.34
2022-11-13T09:30:09.799Z,55.68
2022-11-13T09:32:36.521Z,55.82
2022-11-13T09:35:03.159Z,55.57
2022-11-13T09:37:29.796Z,55.73
2022-11-13T09:39:56.472Z,54.89
2022-11-13T09:42:23.141Z,55.28
2022-11-13T09:44:49.842Z,55.23
2022-11-13T09:47:16.455Z,54.85
2022-11-13T09:49:43.071Z,54.74
2022-11-13T09:52:09.709Z,54.32
2022-11-13T09:54:36.338Z,54.06
2022-11-13T09:57:03.036Z,53.62
2022-11-13T09:59:29.781Z,53.16
2022-11-13T10:01:56.428Z,53.31
2022-11-13T10:04:23.194Z,53.29
2022-11-13T10:06:49.936Z,52.77
2022-11-13T10:09:16.662Z,52.47
2022-11-13T10:11:43.271Z,51.71
2022-11-13T10:14:09.897Z,51.51
2022-11-13T10:16:36.571Z,51.38
2022-11-13T10:19:03.209Z,50.71
2022-11-13T10:21:29.869Z,50.42
2022-11-13T10:23:56.943Z,50.51
2022-11-13T10:26:23.821Z,49.01
2022-11-13T10:28:51.539Z,50.04
2022-11-13T10:31:18.462Z,50.90
2022-11-13T10:33:45.110Z,49.67
2022-11-13T10:36:11.752Z,50.59
2022-11-13T10:38:38.398Z,49.50
2022-11-13T10:41:05.042Z,49.19
2022-11-13T10:43:32.040Z,48.44
2022-11-13T10:45:58.985Z,48.71
2022-11-13T10:48:25.830Z,48.00
2022-11-13T10:50:52.634Z,46.76
2022-11-13T10:53:19.300Z,47.14
2022-11-13T10:55:45.976Z,46.86
2022-11-13T10:58:12.669Z,46.56
2022-11-13T11:00:39.321Z,46.89
2022-11-13T11:03:05.958Z,46.60
2022-11-13T11:05:32.610Z,46.63
2022-11-13T11:07:59.357Z,47.06
2022-11-13T11:10:26.122Z,47.41
2022-11-13T11:12:52.845Z,47.22
2022-11-13T11:15:19.501Z,47.13
2022-11-13T11:17:46.290Z,47.38
2022-11-13T11:20:12.965Z,47.08
2022-11-13T11:22:39.612Z,46.79
2022-11-13T11:25:06.269Z,46.61
2022-11-13T11:27:32.911Z,45.53
2022-11-13T11:29:59.566Z,46.88
2022-11-13T11:32:26.232Z,46.11
2022-11-13T11:34:58.848Z,47.47
2022-11-13T11:37:25.920Z,46.52
2022-11-13T11:39:52.608Z,45.75
2022-11-13T11:42:19.271Z,45.52
2022-11-13T11:44:46.007Z,45.39
2022-11-13T11:47:12.745Z,47.74
2022-11-13T11:49:41.530Z,46.95
2022-11-13T11:52:08.206Z,45.68
2022-11-13T11:54:34.964Z,46.51
2022-11-13T11:57:01.582Z,46.33
2022-11-13T11:59:28.215Z,45.67
2022-11-13T12:01:54.875Z,45.51
2022-11-13T12:04:21.519Z,45.26
2022-11-13T12:06:48.228Z,44.98
2022-11-13T12:09:14.961Z,45.31
2022-11-13T12:11:41.605Z,45.18
2022-11-13T12:14:08.251Z,45.76
2022-11-13T12:16:34.894Z,45.46
2022-11-13T12:19:01.543Z,46.35
2022-11-13T12:21:28.229Z,46.56
2022-11-13T12:23:54.880Z,46.25
2022-11-13T12:26:21.511Z,46.77
2022-11-13T12:28:48.345Z,47.62
2022-11-13T12:31:14.995Z,49.72
2022-11-13T12:33:41.814Z,50.20
2022-11-13T12:36:08.453Z,48.98
2022-11-13T12:38:35.106Z,48.77
2022-11-13T12:41:01.775Z,48.49
2022-11-13T12:43:28.404Z,47.88
2022-11-13T12:45:55.038Z,47.60
2022-11-13T12:48:21.715Z,47.86
2022-11-13T12:50:48.371Z,48.34
2022-11-13T12:53:15.020Z,47.40
2022-11-13T12:55:41.715Z,48.06
2022-11-13T12:58:08.326Z,47.51
2022-11-13T13:00:34.946Z,47.44
2022-11-13T13:03:01.653Z,47.97
2022-11-13T13:05:28.314Z,48.55
2022-11-13T13:07:54.938Z,47.78
2022-11-13T13:10:21.577Z,48.67
2022-11-13T13:12:48.250Z,49.23
2022-11-13T13:15:14.888Z,49.01
2022-11-13T13:17:41.500Z,49.05
2022-11-13T13:20:08.256Z,48.38
2022-11-13T13:22:34.893Z,48.17
2022-11-13T13:25:01.555Z,48.62
2022-11-13T13:27:28.238Z,48.70
2022-11-13T13:29:55.147Z,48.97
2022-11-13T13:32:21.781Z,48.78
2022-11-13T13:34:48.417Z,47.62
2022-11-13T13:37:15.071Z,48.08
2022-11-13T13:39:41.728Z,48.49
2022-11-13T13:42:08.350Z,48.07
2022-11-13T13:44:34.998Z,48.90
2022-11-13T13:47:01.613Z,49.86
2022-11-13T13:49:28.293Z,49.32
2022-11-13T13:51:55.021Z,50.20
2022-11-13T13:54:21.687Z,51.05
2022-11-13T13:56:48.330Z,51.13
2022-11-13T13:59:14.968Z,50.63
2022-11-13T14:01:41.688Z,50.53
2022-11-13T14:04:08.447Z,51.15
2022-11-13T14:06:35.113Z,51.22
2022-11-13T14:09:01.864Z,53.63
2022-11-13T14:11:28.491Z,54.20
2022-11-13T14:13:55.129Z,53.43
2022-11-13T14:16:21.870Z,52.98
2022-11-13T14:18:48.515Z,52.63
2022-11-13T14:21:15.157Z,53.65
2022-11-13T14:23:42.324Z,53.35
2022-11-13T14:26:08.939Z,54.21
2022-11-13T14:28:35.654Z,53.88
2022-11-13T14:31:02.306Z,54.08
2022-11-13T14:33:29.293Z,54.28
2022-11-13T14:35:56.198Z,53.22
2022-11-13T14:38:22.819Z,52.60
2022-11-13T14:40:49.490Z,52.21
2022-11-13T14:43:16.137Z,52.38
2022-11-13T14:45:42.775Z,52.04
2022-11-13T14:48:09.410Z,52.75
2022-11-13T14:50:36.069Z,52.65
2022-11-13T14:53:02.762Z,52.89
2022-11-13T14:55:29.409Z,52.61
2022-11-13T14:57:56.145Z,52.85
2022-11-13T15:00:22.800Z,52.44
2022-11-13T15:02:49.456Z,52.83
2022-11-13T15:05:16.085Z,52.98
2022-11-13T15:07:42.731Z,52.98
2022-11-13T15:10:09.369Z,53.03
2022-11-13T15:12:36.040Z,53.65
2022-11-13T15:15:02.704Z,53.88
2022-11-13T15:17:29.503Z,54.04
2022-11-13T15:19:56.154Z,54.05
2022-11-13T15:22:27.601Z,53.88
2022-11-13T15:24:55.256Z,54.33
2022-11-13T15:27:21.869Z,54.24
2022-11-13T15:29:48.551Z,54.42
2022-11-13T15:32:15.245Z,54.40
2022-11-13T15:34:41.987Z,54.75
2022-11-13T15:37:08.691Z,54.76
2022-11-13T15:39:35.335Z,55.39
2022-11-13T15:42:01.999Z,55.29
2022-11-13T15:44:28.650Z,55.69
2022-11-13T15:46:55.329Z,56.30
2022-11-13T15:49:21.984Z,56.22
2022-11-13T15:51:48.585Z,56.87
2022-11-13T15:54:15.254Z,56.71
2022-11-13T15:56:41.901Z,56.45
2022-11-13T15:59:08.589Z,56.52
2022-11-13T16:01:35.275Z,56.54
2022-11-13T16:04:01.933Z,56.97
2022-11-13T16:06:28.569Z,57.22
2022-11-13T16:08:55.230Z,57.08
2022-11-13T16:11:21.911Z,57.42
2022-11-13T16:13:48.607Z,57.68
2022-11-13T16:16:15.274Z,57.62
2022-11-13T16:18:42.085Z,57.98
2022-11-13T16:21:08.771Z,57.52
2022-11-13T16:23:35.398Z,57.10
2022-11-13T16:26:02.049Z,56.95
2022-11-13T16:28:31.496Z,56.89
2022-11-13T16:31:00.912Z,56.69
2022-11-13T16:33:27.927Z,57.36
2022-11-13T16:35:54.807Z,57.87
2022-11-13T16:38:21.473Z,58.29
2022-11-13T16:40:48.122Z,58.43
2022-11-13T16:43:14.844Z,58.97
2022-11-13T16:45:41.640Z,58.72
2022-11-13T16:48:08.291Z,58.44
2022-11-13T16:50:34.947Z,58.45
2022-11-13T16:53:01.619Z,58.59
2022-11-13T16:55:28.255Z,58.76
2022-11-13T16:57:54.905Z,58.55
2022-11-13T17:00:21.544Z,58.34
2022-11-13T17:02:48.186Z,58.82
2022-11-13T17:05:14.837Z,59.05
2022-11-13T17:07:41.476Z,58.57
2022-11-13T17:10:30.345Z,59.08
2022-11-13T17:12:55.433Z,58.85
2022-11-13T17:15:22.261Z,58.17
2022-11-13T17:17:48.925Z,58.26
2022-11-13T17:20:15.574Z,58.36
2022-11-13T17:22:42.365Z,58.30
2022-11-13T17:25:09.031Z,58.16
2022-11-13T17:27:35.653Z,58.94
2022-11-13T17:30:02.274Z,59.25
2022-11-13T17:32:28.952Z,59.86
2022-11-13T17:34:55.657Z,60.01
2022-11-13T17:37:25.153Z,59.86
2022-11-13T17:39:52.107Z,58.92
2022-11-13T17:42:18.858Z,59.62
2022-11-13T17:44:45.486Z,59.55
2022-11-13T17:47:12.174Z,60.37
2022-11-13T17:49:38.921Z,60.21
2022-11-13T17:52:05.654Z,60.23
2022-11-13T17:54:32.328Z,61.06
2022-11-13T17:56:58.990Z,60.41
2022-11-13T17:59:25.654Z,59.89
2022-11-13T18:01:52.521Z,60.36
2022-11-13T18:04:19.378Z,60.64
2022-11-13T18:06:46.215Z,61.40
2022-11-13T18:09:12.876Z,61.62
2022-11-13T18:11:39.541Z,61.56
2022-11-13T18:14:06.206Z,60.89
2022-11-13T18:16:32.828Z,60.84
2022-11-13T18:18:59.723Z,60.71
2022-11-13T18:21:26.402Z,61.71
2022-11-13T18:23:53.375Z,61.79
2022-11-13T18:26:20.075Z,61.18
2022-11-13T18:28:46.718Z,60.96
2022-11-13T18:31:13.356Z,61.44
2022-11-13T18:33:40.005Z,61.37
2022-11-13T18:36:06.655Z,61.62
2022-11-13T18:38:33.293Z,61.11
2022-11-13T18:40:59.954Z,60.62
2022-11-13T18:43:26.887Z,60.54
2022-11-13T18:45:53.843Z,60.29
2022-11-13T18:48:20.487Z,60.19
2022-11-13T18:50:47.165Z,60.28
2022-11-13T18:53:13.824Z,60.08
2022-11-13T18:55:40.535Z,60.15
2022-11-13T18:58:07.203Z,59.91
2022-11-13T19:00:33.863Z,60.26
2022-11-13T19:03:00.512Z,60.12
2022-11-13T19:05:27.162Z,60.27
2022-11-13T19:07:53.835Z,60.03
2022-11-13T19:10:20.733Z,60.42
2022-11-13T19:12:48.597Z,60.77
2022-11-13T19:15:16.147Z,60.36
2022-11-13T19:17:42.772Z,60.25
2022-11-13T19:20:09.480Z,60.57
2022-11-13T19:22:37.730Z,60.64
2022-11-13T19:25:04.359Z,60.80
2022-11-13T19:27:31.073Z,60.77
2022-11-13T19:29:57.721Z,60.71
2022-11-13T19:32:24.378Z,60.87
2022-11-13T19:37:35.408Z,61.16
2022-11-13T19:40:02.100Z,61.21
2022-11-13T19:42:28.787Z,61.44
2022-11-13T19:44:55.495Z,60.94
2022-11-13T19:47:22.133Z,61.38
2022-11-13T19:49:48.825Z,61.46
2022-11-13T19:52:15.456Z,61.29
2022-11-13T19:54:42.169Z,61.69
2022-11-13T19:57:08.826Z,61.79
2022-11-13T19:59:35.575Z,61.74
2022-11-13T20:02:02.279Z,61.68
2022-11-13T20:04:28.968Z,61.64
2022-11-13T20:06:55.903Z,61.22
2022-11-13T20:09:22.611Z,61.17
2022-11-13T20:11:49.236Z,61.38
2022-11-13T20:14:15.968Z,61.58
2022-11-13T20:16:42.576Z,61.42
2022-11-13T20:19:09.226Z,61.26
2022-11-13T20:21:35.888Z,61.74
2022-11-13T20:24:02.576Z,61.21
2022-11-13T20:26:29.226Z,61.33
2022-11-13T20:28:55.928Z,61.19
2022-11-13T20:31:22.634Z,61.41
2022-11-13T20:33:49.320Z,61.78
2022-11-13T20:36:15.953Z,63.23
2022-11-13T20:38:42.703Z,63.06
2022-11-13T20:41:09.400Z,62.77
2022-11-13T20:43:36.028Z,62.13
2022-11-13T20:46:05.500Z,62.06
2022-11-13T20:48:32.264Z,61.51
2022-11-13T20:50:59.073Z,61.26
2022-11-13T20:53:25.676Z,60.92
2022-11-13T20:55:52.368Z,60.95
2022-11-13T20:58:19.116Z,61.07
2022-11-13T21:00:45.778Z,60.78
2022-11-13T21:03:12.461Z,60.68
2022-11-13T21:05:39.090Z,61.16
2022-11-13T21:08:05.723Z,61.13
2022-11-13T21:10:32.400Z,61.23
2022-11-13T21:12:59.041Z,61.18
2022-11-13T21:15:25.728Z,61.25
2022-11-13T21:17:52.393Z,60.93
2022-11-13T21:20:19.068Z,61.23
2022-11-13T21:22:45.776Z,61.23
2022-11-13T21:25:12.402Z,61.43
2022-11-13T21:27:39.039Z,61.56
2022-11-13T21:30:05.681Z,61.43
2022-11-13T21:32:32.350Z,61.29
2022-11-13T21:34:59.026Z,61.40
2022-11-13T21:37:25.716Z,61.15
2022-11-13T21:39:52.357Z,60.71
2022-11-13T21:42:19.062Z,60.72
2022-11-13T21:44:45.707Z,60.64
2022-11-13T21:47:12.352Z,61.03
2022-11-13T21:49:39.089Z,60.91
2022-11-13T21:52:05.726Z,60.93
2022-11-13T21:54:32.376Z,60.98
2022-11-13T21:56:59.018Z,60.83
2022-11-13T21:59:25.665Z,61.21
2022-11-13T22:01:52.369Z,60.56
2022-11-13T22:04:19.003Z,60.52
2022-11-13T22:06:45.660Z,60.58
2022-11-13T22:09:12.347Z,60.72
2022-11-13T22:11:38.975Z,60.79
2022-11-13T22:14:05.801Z,60.57
2022-11-13T22:16:32.545Z,60.74
2022-11-13T22:18:59.241Z,60.91
2022-11-13T22:21:25.870Z,60.80
2022-11-13T22:23:52.544Z,60.87
2022-11-13T22:26:19.279Z,60.69
2022-11-13T22:28:45.976Z,61.20
2022-11-13T22:31:12.630Z,61.13
2022-11-13T22:33:43.665Z,61.12
2022-11-13T22:36:13.187Z,61.24
2022-11-13T22:38:39.845Z,61.02
2022-11-13T22:41:06.539Z,61.10
2022-11-13T22:43:33.195Z,60.76
2022-11-13T22:46:00.026Z,61.75
2022-11-13T22:48:26.966Z,61.88
2022-11-13T22:50:53.894Z,61.35
2022-11-13T22:53:20.519Z,61.06
2022-11-13T22:55:47.220Z,61.16
2022-11-13T22:58:13.869Z,61.21
2022-11-13T23:00:40.526Z,61.49
2022-11-13T23:03:07.374Z,61.37
2022-11-13T23:05:34.212Z,60.87
2022-11-13T23:08:00.851Z,61.13
2022-11-13T23:10:27.492Z,61.16
2022-11-13T23:12:54.146Z,60.92
2022-11-13T23:15:20.788Z,61.12
2022-11-13T23:17:47.469Z,60.92
2022-11-13T23:20:14.098Z,60.88
2022-11-13T23:22:40.833Z,60.76
2022-11-13T23:25:07.490Z,60.81
2022-11-13T23:27:34.143Z,60.97
2022-11-13T23:30:00.842Z,60.95
2022-11-13T23:32:27.495Z,60.76
2022-11-13T23:34:59.099Z,60.36
2022-11-13T23:37:26.614Z,60.41
2022-11-13T23:39:53.257Z,60.45
2022-11-13T23:42:39.368Z,60.75
2022-11-13T23:45:06.605Z,60.72
2022-11-13T23:47:33.289Z,60.75
2022-11-13T23:49:59.940Z,60.54
2022-11-13T23:52:26.729Z,60.86
2022-11-13T23:54:53.357Z,60.59
2022-11-13T23:57:20.207Z,60.78
2022-11-13T23:59:46.835Z,61.48
